sensor_id;sensor_type;location;lat;lon;timestamp;temperature;humidity
20141;DHT22;10231;47.702;9.826;2023-06-26T00:02:15;18.60;99.90
20141;DHT22;10231;47.702;9.826;2023-06-26T00:04:42;18.50;99.90
20141;DHT22;10231;47.702;9.826;2023-06-26T00:07:08;18.50;99.90
20141;DHT22;10231;47.702;9.826;2023-06-26T00:09:34;18.50;99.90
20141;DHT22;10231;47.702;9.826;2023-06-26T00:11:59;18.50;99.90
20141;DHT22;10231;47.702;9.826;2023-06-26T00:14:25;18.50;99.90
20141;DHT22;10231;47.702;9.826;2023-06-26T00:16:51;18.50;99.90
20141;DHT22;10231;47.702;9.826;2023-06-26T00:19:17;18.40;99.90
20141;DHT22;10231;47.702;9.826;2023-06-26T00:21:42;18.50;99.90
20141;DHT22;10231;47.702;9.826;2023-06-26T00:24:13;18.50;99.90
20141;DHT22;10231;47.702;9.826;2023-06-26T00:26:39;18.50;99.90
20141;DHT22;10231;47.702;9.826;2023-06-26T00:29:05;18.40;99.90
20141;DHT22;10231;47.702;9.826;2023-06-26T00:31:30;18.40;99.90
20141;DHT22;10231;47.702;9.826;2023-06-26T00:33:56;18.30;99.90
20141;DHT22;10231;47.702;9.826;2023-06-26T00:36:21;18.20;99.90
20141;DHT22;10231;47.702;9.826;2023-06-26T00:38:51;18.10;99.90
20141;DHT22;10231;47.702;9.826;2023-06-26T00:41:17;17.90;99.90
20141;DHT22;10231;47.702;9.826;2023-06-26T00:43:42;17.90;99.90
20141;DHT22;10231;47.702;9.826;2023-06-26T00:46:10;17.80;99.90
20141;DHT22;10231;47.702;9.826;2023-06-26T00:48:37;17.70;99.90
20141;DHT22;10231;47.702;9.826;2023-06-26T00:51:03;17.70;99.90
20141;DHT22;10231;47.702;9.826;2023-06-26T00:53:28;17.60;99.90
20141;DHT22;10231;47.702;9.826;2023-06-26T00:55:54;17.60;99.90
20141;DHT22;10231;47.702;9.826;2023-06-26T00:58:23;17.50;99.90
20141;DHT22;10231;47.702;9.826;2023-06-26T01:00:53;17.40;99.90
20141;DHT22;10231;47.702;9.826;2023-06-26T01:03:22;17.40;99.90
20141;DHT22;10231;47.702;9.826;2023-06-26T01:05:50;17.40;99.90
20141;DHT22;10231;47.702;9.826;2023-06-26T01:08:17;17.30;99.90
20141;DHT22;10231;47.702;9.826;2023-06-26T01:10:44;17.30;99.90
20141;DHT22;10231;47.702;9.826;2023-06-26T01:13:09;17.20;99.90
20141;DHT22;10231;47.702;9.826;2023-06-26T01:15:36;17.20;99.90
20141;DHT22;10231;47.702;9.826;2023-06-26T01:18:01;17.30;99.90
20141;DHT22;10231;47.702;9.826;2023-06-26T01:20:38;17.30;99.90
20141;DHT22;10231;47.702;9.826;2023-06-26T01:23:22;17.40;99.90
20141;DHT22;10231;47.702;9.826;2023-06-26T01:26:10;17.30;99.90
20141;DHT22;10231;47.702;9.826;2023-06-26T01:28:42;17.30;99.90
20141;DHT22;10231;47.702;9.826;2023-06-26T01:31:09;17.40;99.90
20141;DHT22;10231;47.702;9.826;2023-06-26T01:33:36;17.40;99.90
20141;DHT22;10231;47.702;9.826;2023-06-26T01:36:02;17.40;99.90
20141;DHT22;10231;47.702;9.826;2023-06-26T01:38:28;17.30;99.90
20141;DHT22;10231;47.702;9.826;2023-06-26T01:40:54;17.20;99.90
20141;DHT22;10231;47.702;9.826;2023-06-26T01:46:11;17.10;99.90
20141;DHT22;10231;47.702;9.826;2023-06-26T01:48:55;17.10;99.90
20141;DHT22;10231;47.702;9.826;2023-06-26T01:51:29;17.00;99.90
20141;DHT22;10231;47.702;9.826;2023-06-26T01:53:57;17.10;99.90
20141;DHT22;10231;47.702;9.826;2023-06-26T01:56:24;16.90;99.90
20141;DHT22;10231;47.702;9.826;2023-06-26T01:58:51;16.80;99.90
20141;DHT22;10231;47.702;9.826;2023-06-26T02:01:21;16.80;99.90
20141;DHT22;10231;47.702;9.826;2023-06-26T02:03:47;16.80;99.90
20141;DHT22;10231;47.702;9.826;2023-06-26T02:06:13;16.80;99.90
20141;DHT22;10231;47.702;9.826;2023-06-26T02:08:38;16.70;99.90
20141;DHT22;10231;47.702;9.826;2023-06-26T02:11:04;16.70;99.90
20141;DHT22;10231;47.702;9.826;2023-06-26T02:13:29;16.70;99.90
20141;DHT22;10231;47.702;9.826;2023-06-26T02:15:55;16.60;99.90
20141;DHT22;10231;47.702;9.826;2023-06-26T02:18:21;16.70;99.90
20141;DHT22;10231;47.702;9.826;2023-06-26T02:20:50;16.60;99.90
20141;DHT22;10231;47.702;9.826;2023-06-26T02:23:15;16.60;99.90
20141;DHT22;10231;47.702;9.826;2023-06-26T02:25:41;16.60;99.90
20141;DHT22;10231;47.702;9.826;2023-06-26T02:28:06;16.60;99.90
20141;DHT22;10231;47.702;9.826;2023-06-26T02:30:32;16.50;99.90
20141;DHT22;10231;47.702;9.826;2023-06-26T02:32:57;16.60;99.90
20141;DHT22;10231;47.702;9.826;2023-06-26T02:35:23;16.60;99.90
20141;DHT22;10231;47.702;9.826;2023-06-26T02:37:48;16.60;99.90
20141;DHT22;10231;47.702;9.826;2023-06-26T02:40:14;16.60;99.90
20141;DHT22;10231;47.702;9.826;2023-06-26T02:42:40;16.60;99.90
20141;DHT22;10231;47.702;9.826;2023-06-26T02:45:06;16.60;99.90
20141;DHT22;10231;47.702;9.826;2023-06-26T02:47:31;16.60;99.90
20141;DHT22;10231;47.702;9.826;2023-06-26T02:49:57;16.50;99.90
20141;DHT22;10231;47.702;9.826;2023-06-26T02:52:22;16.60;99.90
20141;DHT22;10231;47.702;9.826;2023-06-26T02:54:48;16.60;99.90
20141;DHT22;10231;47.702;9.826;2023-06-26T02:57:13;16.60;99.90
20141;DHT22;10231;47.702;9.826;2023-06-26T02:59:39;16.60;99.90
20141;DHT22;10231;47.702;9.826;2023-06-26T03:02:05;16.50;99.90
20141;DHT22;10231;47.702;9.826;2023-06-26T03:04:31;16.50;99.90
20141;DHT22;10231;47.702;9.826;2023-06-26T03:06:56;16.50;99.90
20141;DHT22;10231;47.702;9.826;2023-06-26T03:09:22;16.40;99.90
20141;DHT22;10231;47.702;9.826;2023-06-26T03:11:47;16.40;99.90
20141;DHT22;10231;47.702;9.826;2023-06-26T03:14:13;16.30;99.90
20141;DHT22;10231;47.702;9.826;2023-06-26T03:16:39;16.40;99.90
20141;DHT22;10231;47.702;9.826;2023-06-26T03:19:05;16.40;99.90
20141;DHT22;10231;47.702;9.826;2023-06-26T03:21:32;16.40;99.90
20141;DHT22;10231;47.702;9.826;2023-06-26T03:23:58;16.30;99.90
20141;DHT22;10231;47.702;9.826;2023-06-26T03:26:23;16.20;99.90
20141;DHT22;10231;47.702;9.826;2023-06-26T03:28:53;16.10;99.90
20141;DHT22;10231;47.702;9.826;2023-06-26T03:31:19;16.20;99.90
20141;DHT22;10231;47.702;9.826;2023-06-26T03:33:44;16.20;99.90
20141;DHT22;10231;47.702;9.826;2023-06-26T03:36:10;16.30;99.90
20141;DHT22;10231;47.702;9.826;2023-06-26T03:38:35;16.30;99.90
20141;DHT22;10231;47.702;9.826;2023-06-26T03:41:01;16.20;99.90
20141;DHT22;10231;47.702;9.826;2023-06-26T03:43:27;16.20;99.90
20141;DHT22;10231;47.702;9.826;2023-06-26T03:45:53;16.20;99.90
20141;DHT22;10231;47.702;9.826;2023-06-26T03:48:18;16.20;99.90
20141;DHT22;10231;47.702;9.826;2023-06-26T03:50:44;16.20;99.90
20141;DHT22;10231;47.702;9.826;2023-06-26T03:53:10;16.20;99.90
20141;DHT22;10231;47.702;9.826;2023-06-26T03:55:35;16.20;99.90
20141;DHT22;10231;47.702;9.826;2023-06-26T03:58:01;16.20;99.90
20141;DHT22;10231;47.702;9.826;2023-06-26T04:00:26;16.20;99.90
20141;DHT22;10231;47.702;9.826;2023-06-26T04:02:52;16.10;99.90
20141;DHT22;10231;47.702;9.826;2023-06-26T04:05:18;16.20;99.90
20141;DHT22;10231;47.702;9.826;2023-06-26T04:07:43;16.10;99.90
20141;DHT22;10231;47.702;9.826;2023-06-26T04:10:09;16.10;99.90
20141;DHT22;10231;47.702;9.826;2023-06-26T04:12:34;16.10;99.90
20141;DHT22;10231;47.702;9.826;2023-06-26T04:15:00;16.10;99.90
20141;DHT22;10231;47.702;9.826;2023-06-26T04:17:25;16.20;99.90
20141;DHT22;10231;47.702;9.826;2023-06-26T04:19:51;16.20;99.90
20141;DHT22;10231;47.702;9.826;2023-06-26T04:22:17;16.30;99.90
20141;DHT22;10231;47.702;9.826;2023-06-26T04:24:42;16.30;99.90
20141;DHT22;10231;47.702;9.826;2023-06-26T04:27:09;16.30;99.90
20141;DHT22;10231;47.702;9.826;2023-06-26T04:29:34;16.30;99.90
20141;DHT22;10231;47.702;9.826;2023-06-26T04:32:00;16.40;99.90
20141;DHT22;10231;47.702;9.826;2023-06-26T04:34:29;16.40;99.90
20141;DHT22;10231;47.702;9.826;2023-06-26T04:36:58;16.40;99.90
20141;DHT22;10231;47.702;9.826;2023-06-26T04:39:23;16.50;99.90
20141;DHT22;10231;47.702;9.826;2023-06-26T04:41:49;16.60;99.90
20141;DHT22;10231;47.702;9.826;2023-06-26T04:44:14;16.60;99.90
20141;DHT22;10231;47.702;9.826;2023-06-26T04:46:40;16.70;99.90
20141;DHT22;10231;47.702;9.826;2023-06-26T04:49:09;16.70;99.90
20141;DHT22;10231;47.702;9.826;2023-06-26T04:51:35;16.80;99.90
20141;DHT22;10231;47.702;9.826;2023-06-26T04:54:06;16.90;99.90
20141;DHT22;10231;47.702;9.826;2023-06-26T04:56:32;17.00;99.90
20141;DHT22;10231;47.702;9.826;2023-06-26T04:58:57;17.00;99.90
20141;DHT22;10231;47.702;9.826;2023-06-26T05:01:23;17.10;99.90
20141;DHT22;10231;47.702;9.826;2023-06-26T05:03:48;17.10;99.90
20141;DHT22;10231;47.702;9.826;2023-06-26T05:06:14;17.20;99.90
20141;DHT22;10231;47.702;9.826;2023-06-26T05:08:40;17.20;99.90
20141;DHT22;10231;47.702;9.826;2023-06-26T05:11:05;17.30;99.90
20141;DHT22;10231;47.702;9.826;2023-06-26T05:13:31;17.40;99.90
20141;DHT22;10231;47.702;9.826;2023-06-26T05:15:56;17.40;99.90
20141;DHT22;10231;47.702;9.826;2023-06-26T05:18:22;17.50;99.90
20141;DHT22;10231;47.702;9.826;2023-06-26T05:20:48;17.60;99.90
20141;DHT22;10231;47.702;9.826;2023-06-26T05:23:13;17.70;99.90
20141;DHT22;10231;47.702;9.826;2023-06-26T05:25:41;17.70;99.90
20141;DHT22;10231;47.702;9.826;2023-06-26T05:28:07;17.80;99.90
20141;DHT22;10231;47.702;9.826;2023-06-26T05:30:36;17.90;99.90
20141;DHT22;10231;47.702;9.826;2023-06-26T05:33:02;18.00;99.90
20141;DHT22;10231;47.702;9.826;2023-06-26T05:35:29;18.00;99.90
20141;DHT22;10231;47.702;9.826;2023-06-26T05:37:58;18.10;99.90
20141;DHT22;10231;47.702;9.826;2023-06-26T05:40:24;18.20;99.90
20141;DHT22;10231;47.702;9.826;2023-06-26T05:42:50;18.30;99.90
20141;DHT22;10231;47.702;9.826;2023-06-26T05:45:16;18.40;99.90
20141;DHT22;10231;47.702;9.826;2023-06-26T05:47:42;18.50;99.90
20141;DHT22;10231;47.702;9.826;2023-06-26T05:50:09;18.50;99.90
20141;DHT22;10231;47.702;9.826;2023-06-26T05:52:35;18.70;99.90
20141;DHT22;10231;47.702;9.826;2023-06-26T05:55:02;18.70;99.90
20141;DHT22;10231;47.702;9.826;2023-06-26T05:57:29;18.90;99.90
20141;DHT22;10231;47.702;9.826;2023-06-26T05:59:55;18.90;99.90
20141;DHT22;10231;47.702;9.826;2023-06-26T06:02:21;19.10;99.90
20141;DHT22;10231;47.702;9.826;2023-06-26T06:04:47;19.10;99.90
20141;DHT22;10231;47.702;9.826;2023-06-26T06:07:13;19.20;99.90
20141;DHT22;10231;47.702;9.826;2023-06-26T06:09:39;19.30;99.90
20141;DHT22;10231;47.702;9.826;2023-06-26T06:12:05;19.40;99.90
20141;DHT22;10231;47.702;9.826;2023-06-26T06:14:32;19.60;99.90
20141;DHT22;10231;47.702;9.826;2023-06-26T06:16:58;19.80;99.90
20141;DHT22;10231;47.702;9.826;2023-06-26T06:19:23;20.00;99.90
20141;DHT22;10231;47.702;9.826;2023-06-26T06:21:49;20.20;99.90
20141;DHT22;10231;47.702;9.826;2023-06-26T06:24:14;20.30;99.90
20141;DHT22;10231;47.702;9.826;2023-06-26T06:26:40;20.50;99.90
20141;DHT22;10231;47.702;9.826;2023-06-26T06:29:05;20.60;99.90
20141;DHT22;10231;47.702;9.826;2023-06-26T06:31:31;20.70;99.90
20141;DHT22;10231;47.702;9.826;2023-06-26T06:33:57;20.70;99.90
20141;DHT22;10231;47.702;9.826;2023-06-26T06:36:22;20.70;99.90
20141;DHT22;10231;47.702;9.826;2023-06-26T06:38:48;20.80;99.90
20141;DHT22;10231;47.702;9.826;2023-06-26T06:41:14;21.00;99.90
20141;DHT22;10231;47.702;9.826;2023-06-26T06:43:39;21.00;99.90
20141;DHT22;10231;47.702;9.826;2023-06-26T06:46:05;21.10;99.90
20141;DHT22;10231;47.702;9.826;2023-06-26T06:48:31;21.20;99.90
20141;DHT22;10231;47.702;9.826;2023-06-26T06:50:57;21.30;99.90
20141;DHT22;10231;47.702;9.826;2023-06-26T06:53:22;21.30;99.90
20141;DHT22;10231;47.702;9.826;2023-06-26T06:55:49;21.40;99.90
20141;DHT22;10231;47.702;9.826;2023-06-26T06:58:14;21.50;99.90
20141;DHT22;10231;47.702;9.826;2023-06-26T07:00:42;21.60;99.90
20141;DHT22;10231;47.702;9.826;2023-06-26T07:03:08;21.60;99.90
20141;DHT22;10231;47.702;9.826;2023-06-26T07:05:33;21.60;99.90
20141;DHT22;10231;47.702;9.826;2023-06-26T07:07:59;21.60;99.90
20141;DHT22;10231;47.702;9.826;2023-06-26T07:10:24;21.70;99.90
20141;DHT22;10231;47.702;9.826;2023-06-26T07:12:50;21.80;99.90
20141;DHT22;10231;47.702;9.826;2023-06-26T07:15:16;21.90;99.90
20141;DHT22;10231;47.702;9.826;2023-06-26T07:17:41;22.00;99.90
20141;DHT22;10231;47.702;9.826;2023-06-26T07:20:07;22.20;99.90
20141;DHT22;10231;47.702;9.826;2023-06-26T07:22:34;22.10;99.90
20141;DHT22;10231;47.702;9.826;2023-06-26T07:25:00;22.20;99.90
20141;DHT22;10231;47.702;9.826;2023-06-26T07:27:25;22.20;99.90
20141;DHT22;10231;47.702;9.826;2023-06-26T07:29:51;22.30;99.90
20141;DHT22;10231;47.702;9.826;2023-06-26T07:32:16;22.40;99.90
20141;DHT22;10231;47.702;9.826;2023-06-26T07:34:42;22.40;99.90
20141;DHT22;10231;47.702;9.826;2023-06-26T07:37:07;22.40;99.90
20141;DHT22;10231;47.702;9.826;2023-06-26T07:39:33;22.50;99.90
20141;DHT22;10231;47.702;9.826;2023-06-26T07:41:58;22.50;99.90
20141;DHT22;10231;47.702;9.826;2023-06-26T07:44:27;22.50;99.90
20141;DHT22;10231;47.702;9.826;2023-06-26T07:46:52;22.50;99.90
20141;DHT22;10231;47.702;9.826;2023-06-26T07:49:18;22.60;99.90
20141;DHT22;10231;47.702;9.826;2023-06-26T07:51:44;22.70;99.90
20141;DHT22;10231;47.702;9.826;2023-06-26T07:54:09;22.80;99.90
20141;DHT22;10231;47.702;9.826;2023-06-26T07:56:55;22.80;99.90
20141;DHT22;10231;47.702;9.826;2023-06-26T07:59:21;22.90;99.90
20141;DHT22;10231;47.702;9.826;2023-06-26T08:01:51;23.00;99.90
20141;DHT22;10231;47.702;9.826;2023-06-26T08:04:21;23.00;99.90
20141;DHT22;10231;47.702;9.826;2023-06-26T08:06:49;23.10;99.90
20141;DHT22;10231;47.702;9.826;2023-06-26T08:09:15;23.10;99.90
20141;DHT22;10231;47.702;9.826;2023-06-26T08:11:41;23.20;99.90
20141;DHT22;10231;47.702;9.826;2023-06-26T08:14:06;23.30;99.70
20141;DHT22;10231;47.702;9.826;2023-06-26T08:16:32;23.30;99.30
20141;DHT22;10231;47.702;9.826;2023-06-26T08:18:58;23.30;98.80
20141;DHT22;10231;47.702;9.826;2023-06-26T08:21:23;23.40;98.20
20141;DHT22;10231;47.702;9.826;2023-06-26T08:23:49;23.40;98.40
20141;DHT22;10231;47.702;9.826;2023-06-26T08:26:14;23.50;98.70
20141;DHT22;10231;47.702;9.826;2023-06-26T08:28:40;23.50;98.40
20141;DHT22;10231;47.702;9.826;2023-06-26T08:31:05;23.60;98.20
20141;DHT22;10231;47.702;9.826;2023-06-26T08:33:31;23.60;98.40
20141;DHT22;10231;47.702;9.826;2023-06-26T08:35:56;23.70;97.80
20141;DHT22;10231;47.702;9.826;2023-06-26T08:38:22;23.80;97.90
20141;DHT22;10231;47.702;9.826;2023-06-26T08:40:47;23.80;97.80
20141;DHT22;10231;47.702;9.826;2023-06-26T08:43:13;23.80;98.00
20141;DHT22;10231;47.702;9.826;2023-06-26T08:45:39;23.80;98.30
20141;DHT22;10231;47.702;9.826;2023-06-26T08:48:07;23.90;98.20
20141;DHT22;10231;47.702;9.826;2023-06-26T08:50:34;24.00;97.70
20141;DHT22;10231;47.702;9.826;2023-06-26T08:55:41;24.10;97.40
20141;DHT22;10231;47.702;9.826;2023-06-26T08:58:08;24.10;97.40
20141;DHT22;10231;47.702;9.826;2023-06-26T09:00:34;24.10;97.50
20141;DHT22;10231;47.702;9.826;2023-06-26T09:03:01;24.20;97.10
20141;DHT22;10231;47.702;9.826;2023-06-26T09:05:28;24.20;97.20
20141;DHT22;10231;47.702;9.826;2023-06-26T09:07:54;24.20;97.40
20141;DHT22;10231;47.702;9.826;2023-06-26T09:10:24;24.30;97.00
20141;DHT22;10231;47.702;9.826;2023-06-26T09:12:50;24.40;96.80
20141;DHT22;10231;47.702;9.826;2023-06-26T09:15:16;24.40;97.20
20141;DHT22;10231;47.702;9.826;2023-06-26T09:17:44;24.50;96.20
20141;DHT22;10231;47.702;9.826;2023-06-26T09:20:10;24.50;95.70
20141;DHT22;10231;47.702;9.826;2023-06-26T09:22:37;24.60;95.80
20141;DHT22;10231;47.702;9.826;2023-06-26T09:25:05;24.60;95.80
20141;DHT22;10231;47.702;9.826;2023-06-26T09:27:31;24.70;95.00
20141;DHT22;10231;47.702;9.826;2023-06-26T09:29:57;24.70;95.00
20141;DHT22;10231;47.702;9.826;2023-06-26T09:32:24;24.70;95.60
20141;DHT22;10231;47.702;9.826;2023-06-26T09:34:52;24.70;95.30
20141;DHT22;10231;47.702;9.826;2023-06-26T09:37:18;24.80;95.30
20141;DHT22;10231;47.702;9.826;2023-06-26T09:39:44;24.90;95.10
20141;DHT22;10231;47.702;9.826;2023-06-26T09:42:09;25.00;94.60
20141;DHT22;10231;47.702;9.826;2023-06-26T09:44:35;25.00;94.40
20141;DHT22;10231;47.702;9.826;2023-06-26T09:47:04;25.10;94.40
20141;DHT22;10231;47.702;9.826;2023-06-26T09:49:29;25.10;94.80
20141;DHT22;10231;47.702;9.826;2023-06-26T09:51:56;25.20;94.50
20141;DHT22;10231;47.702;9.826;2023-06-26T09:54:22;25.20;93.90
20141;DHT22;10231;47.702;9.826;2023-06-26T09:56:49;25.20;93.80
20141;DHT22;10231;47.702;9.826;2023-06-26T09:59:15;25.20;93.80
20141;DHT22;10231;47.702;9.826;2023-06-26T10:01:43;25.20;93.80
20141;DHT22;10231;47.702;9.826;2023-06-26T10:04:10;25.30;93.40
20141;DHT22;10231;47.702;9.826;2023-06-26T10:06:51;25.40;93.70
20141;DHT22;10231;47.702;9.826;2023-06-26T10:09:19;25.40;94.00
20141;DHT22;10231;47.702;9.826;2023-06-26T10:12:06;25.40;93.80
20141;DHT22;10231;47.702;9.826;2023-06-26T10:14:37;25.40;93.40
20141;DHT22;10231;47.702;9.826;2023-06-26T10:17:10;25.40;93.60
20141;DHT22;10231;47.702;9.826;2023-06-26T10:19:37;25.40;93.30
20141;DHT22;10231;47.702;9.826;2023-06-26T10:22:05;25.40;93.40
20141;DHT22;10231;47.702;9.826;2023-06-26T10:24:33;25.40;94.00
20141;DHT22;10231;47.702;9.826;2023-06-26T10:27:03;25.50;94.00
20141;DHT22;10231;47.702;9.826;2023-06-26T10:29:30;25.60;93.70
20141;DHT22;10231;47.702;9.826;2023-06-26T10:31:58;25.50;93.50
20141;DHT22;10231;47.702;9.826;2023-06-26T10:34:25;25.60;93.60
20141;DHT22;10231;47.702;9.826;2023-06-26T10:37:02;25.70;93.50
20141;DHT22;10231;47.702;9.826;2023-06-26T10:39:46;25.70;93.50
20141;DHT22;10231;47.702;9.826;2023-06-26T10:42:15;25.80;93.50
20141;DHT22;10231;47.702;9.826;2023-06-26T10:44:43;25.80;92.80
20141;DHT22;10231;47.702;9.826;2023-06-26T10:47:09;25.80;93.20
20141;DHT22;10231;47.702;9.826;2023-06-26T10:49:36;25.90;93.40
20141;DHT22;10231;47.702;9.826;2023-06-26T10:52:02;25.90;92.90
20141;DHT22;10231;47.702;9.826;2023-06-26T10:54:30;25.90;92.60
20141;DHT22;10231;47.702;9.826;2023-06-26T10:56:56;25.90;93.30
20141;DHT22;10231;47.702;9.826;2023-06-26T10:59:26;26.00;92.40
20141;DHT22;10231;47.702;9.826;2023-06-26T11:02:00;26.10;91.70
20141;DHT22;10231;47.702;9.826;2023-06-26T11:04:49;26.10;90.70
20141;DHT22;10231;47.702;9.826;2023-06-26T11:07:25;26.10;90.30
20141;DHT22;10231;47.702;9.826;2023-06-26T11:12:40;26.20;90.90
20141;DHT22;10231;47.702;9.826;2023-06-26T11:15:11;26.30;90.80
20141;DHT22;10231;47.702;9.826;2023-06-26T11:17:37;26.40;91.10
20141;DHT22;10231;47.702;9.826;2023-06-26T11:20:05;26.50;90.60
20141;DHT22;10231;47.702;9.826;2023-06-26T11:22:34;26.60;88.10
20141;DHT22;10231;47.702;9.826;2023-06-26T11:25:00;26.70;86.50
20141;DHT22;10231;47.702;9.826;2023-06-26T11:30:04;26.70;86.40
20141;DHT22;10231;47.702;9.826;2023-06-26T11:32:30;26.70;85.00
20141;DHT22;10231;47.702;9.826;2023-06-26T11:34:58;26.70;84.70
20141;DHT22;10231;47.702;9.826;2023-06-26T11:37:24;26.70;84.90
20141;DHT22;10231;47.702;9.826;2023-06-26T11:39:50;26.90;83.90
20141;DHT22;10231;47.702;9.826;2023-06-26T11:42:20;26.90;82.80
20141;DHT22;10231;47.702;9.826;2023-06-26T11:44:46;27.00;83.50
20141;DHT22;10231;47.702;9.826;2023-06-26T11:47:19;27.10;83.10
20141;DHT22;10231;47.702;9.826;2023-06-26T11:49:47;27.10;85.20
20141;DHT22;10231;47.702;9.826;2023-06-26T11:52:14;27.20;81.00
20141;DHT22;10231;47.702;9.826;2023-06-26T11:54:41;27.20;80.30
20141;DHT22;10231;47.702;9.826;2023-06-26T11:57:07;27.30;80.50
20141;DHT22;10231;47.702;9.826;2023-06-26T11:59:37;27.40;77.70
20141;DHT22;10231;47.702;9.826;2023-06-26T12:02:11;27.50;75.70
20141;DHT22;10231;47.702;9.826;2023-06-26T12:04:42;27.60;77.40
20141;DHT22;10231;47.702;9.826;2023-06-26T12:07:09;27.60;76.30
20141;DHT22;10231;47.702;9.826;2023-06-26T12:09:43;27.60;76.70
20141;DHT22;10231;47.702;9.826;2023-06-26T12:12:11;27.60;78.80
20141;DHT22;10231;47.702;9.826;2023-06-26T12:14:39;27.80;75.80
20141;DHT22;10231;47.702;9.826;2023-06-26T12:17:10;27.80;76.10
20141;DHT22;10231;47.702;9.826;2023-06-26T12:19:46;27.90;76.70
20141;DHT22;10231;47.702;9.826;2023-06-26T12:22:13;28.00;77.30
20141;DHT22;10231;47.702;9.826;2023-06-26T12:24:40;28.10;75.90
20141;DHT22;10231;47.702;9.826;2023-06-26T12:27:10;28.00;76.40
20141;DHT22;10231;47.702;9.826;2023-06-26T12:29:36;28.10;75.80
20141;DHT22;10231;47.702;9.826;2023-06-26T12:32:02;28.10;75.60
20141;DHT22;10231;47.702;9.826;2023-06-26T12:34:32;28.10;76.40
20141;DHT22;10231;47.702;9.826;2023-06-26T12:37:03;28.10;75.60
20141;DHT22;10231;47.702;9.826;2023-06-26T12:39:29;28.10;76.60
20141;DHT22;10231;47.702;9.826;2023-06-26T12:41:59;28.20;75.60
20141;DHT22;10231;47.702;9.826;2023-06-26T12:44:27;28.30;75.20
20141;DHT22;10231;47.702;9.826;2023-06-26T12:47:02;28.40;75.20
20141;DHT22;10231;47.702;9.826;2023-06-26T12:49:33;28.40;75.80
20141;DHT22;10231;47.702;9.826;2023-06-26T12:52:00;28.50;75.30
20141;DHT22;10231;47.702;9.826;2023-06-26T12:54:26;28.50;74.20
20141;DHT22;10231;47.702;9.826;2023-06-26T12:56:52;28.60;75.10
20141;DHT22;10231;47.702;9.826;2023-06-26T12:59:18;28.70;75.40
20141;DHT22;10231;47.702;9.826;2023-06-26T13:01:43;28.70;74.70
20141;DHT22;10231;47.702;9.826;2023-06-26T13:04:09;28.70;75.60
20141;DHT22;10231;47.702;9.826;2023-06-26T13:06:36;28.90;74.50
20141;DHT22;10231;47.702;9.826;2023-06-26T13:09:02;29.00;73.90
20141;DHT22;10231;47.702;9.826;2023-06-26T13:11:29;28.90;73.60
20141;DHT22;10231;47.702;9.826;2023-06-26T13:13:55;28.90;73.30
20141;DHT22;10231;47.702;9.826;2023-06-26T13:16:21;28.80;72.60
20141;DHT22;10231;47.702;9.826;2023-06-26T13:18:46;28.80;72.80
20141;DHT22;10231;47.702;9.826;2023-06-26T13:21:12;28.90;73.80
20141;DHT22;10231;47.702;9.826;2023-06-26T13:23:38;29.00;73.20
20141;DHT22;10231;47.702;9.826;2023-06-26T13:26:04;29.10;72.80
20141;DHT22;10231;47.702;9.826;2023-06-26T13:28:30;29.10;72.80
20141;DHT22;10231;47.702;9.826;2023-06-26T13:30:56;29.10;73.20
20141;DHT22;10231;47.702;9.826;2023-06-26T13:33:21;29.00;73.00
20141;DHT22;10231;47.702;9.826;2023-06-26T13:35:53;28.90;73.00
20141;DHT22;10231;47.702;9.826;2023-06-26T13:38:20;28.70;72.40
20141;DHT22;10231;47.702;9.826;2023-06-26T13:40:58;28.50;72.90
20141;DHT22;10231;47.702;9.826;2023-06-26T13:43:26;28.40;73.90
20141;DHT22;10231;47.702;9.826;2023-06-26T13:45:53;28.30;73.70
20141;DHT22;10231;47.702;9.826;2023-06-26T13:48:18;28.20;73.80
20141;DHT22;10231;47.702;9.826;2023-06-26T13:50:45;28.10;74.00
20141;DHT22;10231;47.702;9.826;2023-06-26T13:53:10;28.00;74.20
20141;DHT22;10231;47.702;9.826;2023-06-26T13:55:36;27.90;74.40
20141;DHT22;10231;47.702;9.826;2023-06-26T13:58:04;27.80;75.20
20141;DHT22;10231;47.702;9.826;2023-06-26T14:00:30;27.80;75.60
20141;DHT22;10231;47.702;9.826;2023-06-26T14:02:56;27.80;76.00
20141;DHT22;10231;47.702;9.826;2023-06-26T14:05:22;27.80;75.60
20141;DHT22;10231;47.702;9.826;2023-06-26T14:07:48;27.70;75.40
20141;DHT22;10231;47.702;9.826;2023-06-26T14:10:14;27.70;76.30
20141;DHT22;10231;47.702;9.826;2023-06-26T14:12:40;27.80;77.00
20141;DHT22;10231;47.702;9.826;2023-06-26T14:15:06;28.00;76.80
20141;DHT22;10231;47.702;9.826;2023-06-26T14:17:32;28.00;78.20
20141;DHT22;10231;47.702;9.826;2023-06-26T14:19:58;28.20;77.80
20141;DHT22;10231;47.702;9.826;2023-06-26T14:22:23;28.20;76.40
20141;DHT22;10231;47.702;9.826;2023-06-26T14:24:49;28.30;77.30
20141;DHT22;10231;47.702;9.826;2023-06-26T14:27:15;28.40;81.80
20141;DHT22;10231;47.702;9.826;2023-06-26T14:29:40;28.50;82.90
20141;DHT22;10231;47.702;9.826;2023-06-26T14:32:06;28.50;83.10
20141;DHT22;10231;47.702;9.826;2023-06-26T14:34:32;28.50;83.50
20141;DHT22;10231;47.702;9.826;2023-06-26T14:36:58;28.30;84.80
20141;DHT22;10231;47.702;9.826;2023-06-26T14:39:23;28.30;86.00
20141;DHT22;10231;47.702;9.826;2023-06-26T14:41:49;28.30;85.60
20141;DHT22;10231;47.702;9.826;2023-06-26T14:44:15;28.40;86.20
20141;DHT22;10231;47.702;9.826;2023-06-26T14:46:41;28.60;86.70
20141;DHT22;10231;47.702;9.826;2023-06-26T14:49:06;28.80;86.50
20141;DHT22;10231;47.702;9.826;2023-06-26T14:51:32;29.10;87.10
20141;DHT22;10231;47.702;9.826;2023-06-26T14:53:57;29.30;84.60
20141;DHT22;10231;47.702;9.826;2023-06-26T14:56:23;29.30;82.10
20141;DHT22;10231;47.702;9.826;2023-06-26T14:58:50;29.20;83.00
20141;DHT22;10231;47.702;9.826;2023-06-26T15:01:20;29.10;82.20
20141;DHT22;10231;47.702;9.826;2023-06-26T15:03:49;29.20;81.30
20141;DHT22;10231;47.702;9.826;2023-06-26T15:06:15;29.40;82.30
20141;DHT22;10231;47.702;9.826;2023-06-26T15:08:40;29.60;78.10
20141;DHT22;10231;47.702;9.826;2023-06-26T15:11:07;29.80;78.60
20141;DHT22;10231;47.702;9.826;2023-06-26T15:13:32;29.90;78.40
20141;DHT22;10231;47.702;9.826;2023-06-26T15:15:58;29.80;77.10
20141;DHT22;10231;47.702;9.826;2023-06-26T15:18:23;29.90;77.60
20141;DHT22;10231;47.702;9.826;2023-06-26T15:20:49;30.00;78.20
20141;DHT22;10231;47.702;9.826;2023-06-26T15:23:14;30.10;76.70
20141;DHT22;10231;47.702;9.826;2023-06-26T15:25:40;30.10;76.70
20141;DHT22;10231;47.702;9.826;2023-06-26T15:28:06;30.20;77.30
20141;DHT22;10231;47.702;9.826;2023-06-26T15:30:32;30.30;74.40
20141;DHT22;10231;47.702;9.826;2023-06-26T15:32:58;30.10;74.00
20141;DHT22;10231;47.702;9.826;2023-06-26T15:35:23;30.10;73.50
20141;DHT22;10231;47.702;9.826;2023-06-26T15:37:49;30.00;74.10
20141;DHT22;10231;47.702;9.826;2023-06-26T15:40:15;30.00;74.70